Главная страница
METAR-TAF:

METAR-TAF

Аэропорты :

Дубай, Объединенные Арабские Эмираты

широта: 25-15-10N, долгота: 055-21-52E, высота над уровнем моря: 8 м

Текущие метеонаблюдения

Эта сводка был подготовлена 46 минут назад, в 19:00 UTC
Ветер 6 Узел от восточно-северо-восточный
Температура 19°C
Влажность 49%
Давление 1020 hPa
Видимость 10 км и более
Нет облачности ниже 1500 м, и нет кучево-дождевой облачности

METAR: OMDB 231900Z 07006KT CAVOK 19/08 Q1020 NOSIG

Время: 23:46 (19:46 UTC)

Прогноз

Эта сводка был подготовлена 2 часа и 46 минут назад, в 17:00 UTC
Прогноз действительный с 23-го 18 UTC до 25-го 00 UTC
Ветер 7 Узел от восточно-северо-восточный
Видимость 10 км и более
Нет облачности ниже 1500 м, и нет кучево-дождевой облачности
изменения
С 24-го 08 UTC до 24-го 10 UTC
Ветер 12 Узел от северно-северо-западный
изменения
С 24-го 16 UTC до 24-го 18 UTC
Ветер 5 Узел от восточный

TAF: OMDB 231700Z 2318/2500 06007KT CAVOK BECMG 2408/2410 34012KT BECMG 2416/2418 09005KT

Метеонаблюдения и прогнозы для более 4000 аэропортов (сводки METAR и TAF).

Имеющиеся станции представлены на карте желтыми и красными точками.

Чтобы увидеть название станции, наведите на нее мышь.

Затем щелкните, чтобы увидеть метеонаблюдения и метеопрогнозы.

Управление картой: чтобы увеличить масштаб, щелкните зеленые кнопки с черным крестиком; чтобы уменьшить масштаб, щелкните зеленую кнопку с тире; для просмотра соседних карт щелкайте зеленые стрелки.


METAR-TAF: